sensor_id;sensor_type;location;lat;lon;timestamp;P1;durP1;ratioP1;P2;durP2;ratioP2
10059;SDS011;5069;49.306;8.636;2023-04-01T00:00:31;1.50;;;0.63;;
10059;SDS011;5069;49.306;8.636;2023-04-01T00:03:33;2.90;;;0.70;;
10059;SDS011;5069;49.306;8.636;2023-04-01T00:06:36;3.73;;;1.00;;
10059;SDS011;5069;49.306;8.636;2023-04-01T00:09:37;2.57;;;0.87;;
10059;SDS011;5069;49.306;8.636;2023-04-01T00:12:39;4.33;;;0.93;;
10059;SDS011;5069;49.306;8.636;2023-04-01T00:15:41;4.77;;;1.17;;
10059;SDS011;5069;49.306;8.636;2023-04-01T00:18:44;4.63;;;0.97;;
10059;SDS011;5069;49.306;8.636;2023-04-01T00:21:45;1.50;;;0.80;;
10059;SDS011;5069;49.306;8.636;2023-04-01T00:24:47;4.40;;;0.77;;
10059;SDS011;5069;49.306;8.636;2023-04-01T00:27:48;3.50;;;0.80;;
10059;SDS011;5069;49.306;8.636;2023-04-01T00:30:51;4.90;;;1.00;;
10059;SDS011;5069;49.306;8.636;2023-04-01T00:33:52;3.23;;;0.90;;
10059;SDS011;5069;49.306;8.636;2023-04-01T00:36:54;3.17;;;1.03;;
10059;SDS011;5069;49.306;8.636;2023-04-01T00:39:55;3.50;;;0.83;;
10059;SDS011;5069;49.306;8.636;2023-04-01T00:42:58;2.93;;;0.90;;
10059;SDS011;5069;49.306;8.636;2023-04-01T00:46:00;4.97;;;1.00;;
10059;SDS011;5069;49.306;8.636;2023-04-01T00:49:01;2.70;;;0.70;;
10059;SDS011;5069;49.306;8.636;2023-04-01T00:52:04;3.40;;;0.90;;
10059;SDS011;5069;49.306;8.636;2023-04-01T00:55:08;1.73;;;0.80;;
10059;SDS011;5069;49.306;8.636;2023-04-01T00:58:14;2.87;;;1.00;;
10059;SDS011;5069;49.306;8.636;2023-04-01T01:01:20;2.43;;;1.00;;
10059;SDS011;5069;49.306;8.636;2023-04-01T01:04:26;3.37;;;0.90;;
10059;SDS011;5069;49.306;8.636;2023-04-01T01:07:41;3.33;;;1.10;;
10059;SDS011;5069;49.306;8.636;2023-04-01T01:10:46;3.20;;;0.93;;
10059;SDS011;5069;49.306;8.636;2023-04-01T01:13:58;2.83;;;1.00;;
10059;SDS011;5069;49.306;8.636;2023-04-01T01:21:04;6.43;;;1.43;;
10059;SDS011;5069;49.306;8.636;2023-04-01T01:28:16;3.63;;;0.87;;
10059;SDS011;5069;49.306;8.636;2023-04-01T01:37:52;2.07;;;0.97;;
10059;SDS011;5069;49.306;8.636;2023-04-01T01:40:58;2.90;;;1.10;;
10059;SDS011;5069;49.306;8.636;2023-04-01T01:44:03;4.40;;;1.00;;
10059;SDS011;5069;49.306;8.636;2023-04-01T01:47:07;4.63;;;1.23;;
10059;SDS011;5069;49.306;8.636;2023-04-01T01:50:09;6.87;;;1.20;;
10059;SDS011;5069;49.306;8.636;2023-04-01T01:53:12;2.67;;;1.10;;
10059;SDS011;5069;49.306;8.636;2023-04-01T01:56:14;4.83;;;1.20;;
10059;SDS011;5069;49.306;8.636;2023-04-01T01:59:20;3.83;;;0.90;;
10059;SDS011;5069;49.306;8.636;2023-04-01T02:02:23;4.27;;;1.23;;
10059;SDS011;5069;49.306;8.636;2023-04-01T02:05:27;4.47;;;0.90;;
10059;SDS011;5069;49.306;8.636;2023-04-01T02:08:49;4.43;;;1.00;;
10059;SDS011;5069;49.306;8.636;2023-04-01T02:11:55;3.57;;;0.97;;
10059;SDS011;5069;49.306;8.636;2023-04-01T02:15:03;3.17;;;0.87;;
10059;SDS011;5069;49.306;8.636;2023-04-01T02:18:12;2.87;;;1.20;;
10059;SDS011;5069;49.306;8.636;2023-04-01T02:21:14;4.40;;;1.10;;
10059;SDS011;5069;49.306;8.636;2023-04-01T02:24:18;4.57;;;0.97;;
10059;SDS011;5069;49.306;8.636;2023-04-01T02:27:23;5.70;;;1.13;;
10059;SDS011;5069;49.306;8.636;2023-04-01T02:30:29;4.27;;;0.90;;
10059;SDS011;5069;49.306;8.636;2023-04-01T02:33:34;3.53;;;1.07;;
10059;SDS011;5069;49.306;8.636;2023-04-01T02:36:37;3.63;;;0.93;;
10059;SDS011;5069;49.306;8.636;2023-04-01T02:39:39;3.00;;;1.10;;
10059;SDS011;5069;49.306;8.636;2023-04-01T02:42:41;3.00;;;0.80;;
10059;SDS011;5069;49.306;8.636;2023-04-01T02:45:43;3.73;;;0.90;;
10059;SDS011;5069;49.306;8.636;2023-04-01T02:48:45;2.13;;;0.80;;
10059;SDS011;5069;49.306;8.636;2023-04-01T02:51:46;2.47;;;0.80;;
10059;SDS011;5069;49.306;8.636;2023-04-01T02:54:48;4.63;;;1.07;;
10059;SDS011;5069;49.306;8.636;2023-04-01T02:57:49;5.00;;;1.07;;
10059;SDS011;5069;49.306;8.636;2023-04-01T03:00:50;2.73;;;1.20;;
10059;SDS011;5069;49.306;8.636;2023-04-01T03:03:52;1.77;;;0.80;;
10059;SDS011;5069;49.306;8.636;2023-04-01T03:06:53;2.93;;;1.00;;
10059;SDS011;5069;49.306;8.636;2023-04-01T03:09:56;4.67;;;1.40;;
10059;SDS011;5069;49.306;8.636;2023-04-01T03:12:57;1.93;;;1.20;;
10059;SDS011;5069;49.306;8.636;2023-04-01T03:15:59;2.50;;;0.70;;
10059;SDS011;5069;49.306;8.636;2023-04-01T03:19:01;2.47;;;0.70;;
10059;SDS011;5069;49.306;8.636;2023-04-01T03:22:03;1.63;;;0.60;;
10059;SDS011;5069;49.306;8.636;2023-04-01T03:25:05;2.20;;;0.70;;
10059;SDS011;5069;49.306;8.636;2023-04-01T03:28:08;2.37;;;0.73;;
10059;SDS011;5069;49.306;8.636;2023-04-01T03:31:11;1.73;;;0.67;;
10059;SDS011;5069;49.306;8.636;2023-04-01T03:34:18;1.37;;;0.70;;
10059;SDS011;5069;49.306;8.636;2023-04-01T03:37:20;1.27;;;0.50;;
10059;SDS011;5069;49.306;8.636;2023-04-01T03:40:22;2.73;;;0.80;;
10059;SDS011;5069;49.306;8.636;2023-04-01T03:43:24;1.57;;;0.60;;
10059;SDS011;5069;49.306;8.636;2023-04-01T03:46:25;1.00;;;0.40;;
10059;SDS011;5069;49.306;8.636;2023-04-01T03:49:28;1.30;;;0.50;;
10059;SDS011;5069;49.306;8.636;2023-04-01T03:52:29;1.83;;;0.50;;
10059;SDS011;5069;49.306;8.636;2023-04-01T03:55:31;0.83;;;0.53;;
10059;SDS011;5069;49.306;8.636;2023-04-01T03:58:33;1.43;;;0.50;;
10059;SDS011;5069;49.306;8.636;2023-04-01T04:01:36;1.73;;;0.70;;
10059;SDS011;5069;49.306;8.636;2023-04-01T04:04:38;0.77;;;0.60;;
10059;SDS011;5069;49.306;8.636;2023-04-01T04:07:40;3.17;;;0.63;;
10059;SDS011;5069;49.306;8.636;2023-04-01T04:10:42;1.50;;;0.57;;
10059;SDS011;5069;49.306;8.636;2023-04-01T04:13:44;2.97;;;0.70;;
10059;SDS011;5069;49.306;8.636;2023-04-01T04:16:46;2.27;;;0.70;;
10059;SDS011;5069;49.306;8.636;2023-04-01T04:19:47;2.77;;;0.80;;
10059;SDS011;5069;49.306;8.636;2023-04-01T04:22:49;2.83;;;1.03;;
10059;SDS011;5069;49.306;8.636;2023-04-01T04:25:58;3.27;;;0.93;;
10059;SDS011;5069;49.306;8.636;2023-04-01T04:29:02;2.67;;;0.73;;
10059;SDS011;5069;49.306;8.636;2023-04-01T04:32:05;2.63;;;0.60;;
10059;SDS011;5069;49.306;8.636;2023-04-01T04:35:07;4.17;;;0.67;;
10059;SDS011;5069;49.306;8.636;2023-04-01T04:38:08;1.57;;;0.60;;
10059;SDS011;5069;49.306;8.636;2023-04-01T04:41:10;1.60;;;0.90;;
10059;SDS011;5069;49.306;8.636;2023-04-01T04:44:15;1.33;;;0.60;;
10059;SDS011;5069;49.306;8.636;2023-04-01T04:47:16;2.10;;;0.70;;
10059;SDS011;5069;49.306;8.636;2023-04-01T04:50:18;2.83;;;0.80;;
10059;SDS011;5069;49.306;8.636;2023-04-01T04:53:20;2.50;;;0.90;;
10059;SDS011;5069;49.306;8.636;2023-04-01T04:56:23;2.97;;;0.80;;
10059;SDS011;5069;49.306;8.636;2023-04-01T04:59:40;2.00;;;0.90;;
10059;SDS011;5069;49.306;8.636;2023-04-01T05:02:46;2.00;;;0.70;;
10059;SDS011;5069;49.306;8.636;2023-04-01T05:05:49;3.57;;;0.73;;
10059;SDS011;5069;49.306;8.636;2023-04-01T05:08:52;3.37;;;1.07;;
10059;SDS011;5069;49.306;8.636;2023-04-01T05:11:53;4.00;;;0.80;;
10059;SDS011;5069;49.306;8.636;2023-04-01T05:14:55;5.67;;;1.27;;
10059;SDS011;5069;49.306;8.636;2023-04-01T05:17:57;2.90;;;0.83;;
10059;SDS011;5069;49.306;8.636;2023-04-01T05:20:59;3.70;;;1.03;;
10059;SDS011;5069;49.306;8.636;2023-04-01T05:24:00;2.53;;;0.90;;
10059;SDS011;5069;49.306;8.636;2023-04-01T05:27:04;4.03;;;0.90;;
10059;SDS011;5069;49.306;8.636;2023-04-01T05:30:09;4.27;;;1.07;;
10059;SDS011;5069;49.306;8.636;2023-04-01T05:33:26;3.20;;;0.97;;
10059;SDS011;5069;49.306;8.636;2023-04-01T05:36:28;3.50;;;0.90;;
10059;SDS011;5069;49.306;8.636;2023-04-01T05:39:30;3.83;;;1.07;;
10059;SDS011;5069;49.306;8.636;2023-04-01T05:42:32;4.33;;;0.97;;
10059;SDS011;5069;49.306;8.636;2023-04-01T05:45:37;3.23;;;0.90;;
10059;SDS011;5069;49.306;8.636;2023-04-01T05:48:47;2.13;;;1.00;;
10059;SDS011;5069;49.306;8.636;2023-04-01T05:51:49;2.50;;;0.80;;
10059;SDS011;5069;49.306;8.636;2023-04-01T05:54:50;4.07;;;1.00;;
10059;SDS011;5069;49.306;8.636;2023-04-01T05:57:52;3.80;;;0.90;;
10059;SDS011;5069;49.306;8.636;2023-04-01T06:00:59;4.60;;;0.90;;
10059;SDS011;5069;49.306;8.636;2023-04-01T06:04:16;3.90;;;1.10;;
10059;SDS011;5069;49.306;8.636;2023-04-01T06:07:20;4.30;;;1.10;;
10059;SDS011;5069;49.306;8.636;2023-04-01T06:10:21;5.37;;;1.10;;
10059;SDS011;5069;49.306;8.636;2023-04-01T06:13:52;3.17;;;1.17;;
10059;SDS011;5069;49.306;8.636;2023-04-01T06:17:40;3.50;;;1.30;;
10059;SDS011;5069;49.306;8.636;2023-04-01T06:21:07;3.27;;;1.10;;
10059;SDS011;5069;49.306;8.636;2023-04-01T06:28:18;2.67;;;0.90;;
10059;SDS011;5069;49.306;8.636;2023-04-01T06:35:15;2.90;;;0.97;;
10059;SDS011;5069;49.306;8.636;2023-04-01T06:41:52;2.40;;;0.90;;
10059;SDS011;5069;49.306;8.636;2023-04-01T06:49:02;2.10;;;0.80;;
10059;SDS011;5069;49.306;8.636;2023-04-01T06:53:06;2.03;;;0.40;;
10059;SDS011;5069;49.306;8.636;2023-04-01T06:56:49;2.83;;;1.00;;
10059;SDS011;5069;49.306;8.636;2023-04-01T07:00:02;3.87;;;0.73;;
10059;SDS011;5069;49.306;8.636;2023-04-01T07:06:40;2.00;;;0.87;;
10059;SDS011;5069;49.306;8.636;2023-04-01T07:09:52;2.27;;;0.90;;
10059;SDS011;5069;49.306;8.636;2023-04-01T07:13:06;3.23;;;0.97;;
10059;SDS011;5069;49.306;8.636;2023-04-01T07:16:36;2.17;;;0.70;;
10059;SDS011;5069;49.306;8.636;2023-04-01T07:19:47;4.20;;;0.90;;
10059;SDS011;5069;49.306;8.636;2023-04-01T07:22:59;3.23;;;0.70;;
10059;SDS011;5069;49.306;8.636;2023-04-01T07:26:23;3.33;;;0.70;;
10059;SDS011;5069;49.306;8.636;2023-04-01T07:29:48;3.13;;;1.00;;
10059;SDS011;5069;49.306;8.636;2023-04-01T07:32:58;2.03;;;0.90;;
10059;SDS011;5069;49.306;8.636;2023-04-01T07:39:40;2.37;;;0.70;;
10059;SDS011;5069;49.306;8.636;2023-04-01T07:43:25;2.00;;;0.70;;
10059;SDS011;5069;49.306;8.636;2023-04-01T07:47:07;3.10;;;0.83;;
10059;SDS011;5069;49.306;8.636;2023-04-01T07:50:30;1.50;;;0.50;;
10059;SDS011;5069;49.306;8.636;2023-04-01T07:53:49;2.57;;;1.00;;
10059;SDS011;5069;49.306;8.636;2023-04-01T07:57:08;1.90;;;0.70;;
10059;SDS011;5069;49.306;8.636;2023-04-01T08:04:17;1.50;;;0.60;;
10059;SDS011;5069;49.306;8.636;2023-04-01T08:07:37;1.27;;;0.67;;
10059;SDS011;5069;49.306;8.636;2023-04-01T08:11:22;3.80;;;0.77;;
10059;SDS011;5069;49.306;8.636;2023-04-01T08:22:14;2.07;;;0.80;;
10059;SDS011;5069;49.306;8.636;2023-04-01T08:25:26;2.07;;;0.70;;
10059;SDS011;5069;49.306;8.636;2023-04-01T08:28:36;1.33;;;0.80;;
10059;SDS011;5069;49.306;8.636;2023-04-01T08:32:00;1.57;;;0.70;;
10059;SDS011;5069;49.306;8.636;2023-04-01T08:35:09;0.90;;;0.63;;
10059;SDS011;5069;49.306;8.636;2023-04-01T08:38:33;1.93;;;0.80;;
10059;SDS011;5069;49.306;8.636;2023-04-01T08:55:25;1.73;;;0.67;;
10059;SDS011;5069;49.306;8.636;2023-04-01T09:12:42;1.60;;;0.70;;
10059;SDS011;5069;49.306;8.636;2023-04-01T09:19:33;2.10;;;0.80;;
10059;SDS011;5069;49.306;8.636;2023-04-01T09:23:00;4.27;;;0.93;;
10059;SDS011;5069;49.306;8.636;2023-04-01T09:26:27;2.53;;;0.80;;
10059;SDS011;5069;49.306;8.636;2023-04-01T09:29:43;4.80;;;0.70;;
10059;SDS011;5069;49.306;8.636;2023-04-01T09:39:53;1.57;;;0.93;;
10059;SDS011;5069;49.306;8.636;2023-04-01T09:43:26;2.47;;;0.60;;
10059;SDS011;5069;49.306;8.636;2023-04-01T09:46:37;1.87;;;0.60;;
10059;SDS011;5069;49.306;8.636;2023-04-01T09:50:16;2.83;;;0.70;;
10059;SDS011;5069;49.306;8.636;2023-04-01T09:53:27;2.20;;;0.60;;
10059;SDS011;5069;49.306;8.636;2023-04-01T09:56:46;1.87;;;0.70;;
10059;SDS011;5069;49.306;8.636;2023-04-01T10:00:07;1.30;;;0.53;;
10059;SDS011;5069;49.306;8.636;2023-04-01T10:10:30;2.43;;;0.70;;
10059;SDS011;5069;49.306;8.636;2023-04-01T10:20:37;1.63;;;0.80;;
10059;SDS011;5069;49.306;8.636;2023-04-01T10:34:10;1.60;;;0.80;;
10059;SDS011;5069;49.306;8.636;2023-04-01T10:37:38;2.00;;;0.80;;
10059;SDS011;5069;49.306;8.636;2023-04-01T10:40:52;0.63;;;0.60;;
10059;SDS011;5069;49.306;8.636;2023-04-01T10:44:49;1.40;;;0.60;;
10059;SDS011;5069;49.306;8.636;2023-04-01T10:48:41;0.53;;;0.50;;
10059;SDS011;5069;49.306;8.636;2023-04-01T10:52:20;1.17;;;0.60;;
10059;SDS011;5069;49.306;8.636;2023-04-01T11:03:53;0.93;;;0.57;;
10059;SDS011;5069;49.306;8.636;2023-04-01T11:11:19;1.70;;;0.60;;
10059;SDS011;5069;49.306;8.636;2023-04-01T11:14:41;1.73;;;0.63;;
10059;SDS011;5069;49.306;8.636;2023-04-01T11:25:19;2.37;;;1.00;;
10059;SDS011;5069;49.306;8.636;2023-04-01T11:28:58;0.80;;;0.70;;
10059;SDS011;5069;49.306;8.636;2023-04-01T11:35:36;1.10;;;0.60;;
10059;SDS011;5069;49.306;8.636;2023-04-01T11:39:00;1.10;;;1.00;;
10059;SDS011;5069;49.306;8.636;2023-04-01T11:47:13;1.57;;;0.70;;
10059;SDS011;5069;49.306;8.636;2023-04-01T11:53:41;2.67;;;0.80;;
10059;SDS011;5069;49.306;8.636;2023-04-01T11:57:38;1.33;;;0.63;;
10059;SDS011;5069;49.306;8.636;2023-04-01T12:03:54;5.80;;;0.80;;
10059;SDS011;5069;49.306;8.636;2023-04-01T12:14:11;0.90;;;0.60;;
10059;SDS011;5069;49.306;8.636;2023-04-01T12:17:27;0.90;;;0.50;;
10059;SDS011;5069;49.306;8.636;2023-04-01T12:34:22;0.90;;;0.60;;
10059;SDS011;5069;49.306;8.636;2023-04-01T12:44:23;0.83;;;0.50;;
10059;SDS011;5069;49.306;8.636;2023-04-01T12:51:37;3.40;;;0.80;;
10059;SDS011;5069;49.306;8.636;2023-04-01T13:05:39;1.57;;;0.63;;
10059;SDS011;5069;49.306;8.636;2023-04-01T13:09:01;1.23;;;0.80;;
10059;SDS011;5069;49.306;8.636;2023-04-01T13:12:28;1.43;;;0.70;;
10059;SDS011;5069;49.306;8.636;2023-04-01T13:22:15;1.27;;;0.70;;
10059;SDS011;5069;49.306;8.636;2023-04-01T13:25:32;1.73;;;0.60;;
10059;SDS011;5069;49.306;8.636;2023-04-01T13:29:14;1.20;;;0.50;;
10059;SDS011;5069;49.306;8.636;2023-04-01T13:32:44;1.23;;;0.60;;
10059;SDS011;5069;49.306;8.636;2023-04-01T13:45:27;1.13;;;0.77;;
10059;SDS011;5069;49.306;8.636;2023-04-01T13:52:25;1.20;;;0.77;;
10059;SDS011;5069;49.306;8.636;2023-04-01T14:06:23;2.00;;;0.73;;
10059;SDS011;5069;49.306;8.636;2023-04-01T14:09:45;0.60;;;0.50;;
10059;SDS011;5069;49.306;8.636;2023-04-01T14:16:47;0.70;;;0.60;;
10059;SDS011;5069;49.306;8.636;2023-04-01T14:23:20;1.07;;;0.70;;
10059;SDS011;5069;49.306;8.636;2023-04-01T14:26:53;0.50;;;0.50;;
10059;SDS011;5069;49.306;8.636;2023-04-01T14:56:40;0.93;;;0.60;;
10059;SDS011;5069;49.306;8.636;2023-04-01T15:03:22;1.83;;;0.90;;
10059;SDS011;5069;49.306;8.636;2023-04-01T15:06:35;2.10;;;0.70;;
10059;SDS011;5069;49.306;8.636;2023-04-01T15:10:37;0.60;;;0.60;;
10059;SDS011;5069;49.306;8.636;2023-04-01T15:16:34;0.80;;;0.73;;
10059;SDS011;5069;49.306;8.636;2023-04-01T15:24:06;0.50;;;0.50;;
10059;SDS011;5069;49.306;8.636;2023-04-01T15:30:27;1.70;;;0.77;;
10059;SDS011;5069;49.306;8.636;2023-04-01T15:36:38;3.23;;;0.70;;
10059;SDS011;5069;49.306;8.636;2023-04-01T15:46:55;1.13;;;0.70;;
10059;SDS011;5069;49.306;8.636;2023-04-01T15:49:43;2.53;;;0.90;;
10059;SDS011;5069;49.306;8.636;2023-04-01T16:20:14;0.73;;;0.57;;
10059;SDS011;5069;49.306;8.636;2023-04-01T16:23:30;1.50;;;0.60;;
10059;SDS011;5069;49.306;8.636;2023-04-01T16:26:42;1.70;;;0.70;;
10059;SDS011;5069;49.306;8.636;2023-04-01T16:30:00;1.60;;;1.00;;
10059;SDS011;5069;49.306;8.636;2023-04-01T16:33:44;2.50;;;1.10;;
10059;SDS011;5069;49.306;8.636;2023-04-01T16:43:26;3.17;;;0.80;;
10059;SDS011;5069;49.306;8.636;2023-04-01T16:46:41;2.33;;;1.43;;
10059;SDS011;5069;49.306;8.636;2023-04-01T16:50:07;1.40;;;0.70;;
10059;SDS011;5069;49.306;8.636;2023-04-01T16:53:19;1.57;;;0.70;;
10059;SDS011;5069;49.306;8.636;2023-04-01T17:03:40;2.43;;;0.57;;
10059;SDS011;5069;49.306;8.636;2023-04-01T17:06:55;0.93;;;0.60;;
10059;SDS011;5069;49.306;8.636;2023-04-01T17:13:33;1.63;;;0.60;;
10059;SDS011;5069;49.306;8.636;2023-04-01T17:26:28;1.20;;;0.67;;
10059;SDS011;5069;49.306;8.636;2023-04-01T17:33:57;0.93;;;0.50;;
10059;SDS011;5069;49.306;8.636;2023-04-01T17:40:53;1.17;;;0.60;;
10059;SDS011;5069;49.306;8.636;2023-04-01T17:53:56;0.90;;;0.50;;
10059;SDS011;5069;49.306;8.636;2023-04-01T17:57:20;1.47;;;0.60;;
10059;SDS011;5069;49.306;8.636;2023-04-01T18:00:33;0.50;;;0.50;;
10059;SDS011;5069;49.306;8.636;2023-04-01T18:20:58;1.93;;;0.60;;
10059;SDS011;5069;49.306;8.636;2023-04-01T18:24:27;1.13;;;0.60;;
10059;SDS011;5069;49.306;8.636;2023-04-01T18:30:38;1.03;;;0.60;;
10059;SDS011;5069;49.306;8.636;2023-04-01T18:33:46;1.90;;;0.50;;
10059;SDS011;5069;49.306;8.636;2023-04-01T18:37:10;0.67;;;0.60;;
10059;SDS011;5069;49.306;8.636;2023-04-01T18:40:20;1.80;;;0.70;;
10059;SDS011;5069;49.306;8.636;2023-04-01T18:43:30;1.63;;;0.57;;
10059;SDS011;5069;49.306;8.636;2023-04-01T18:50:36;1.10;;;0.50;;
10059;SDS011;5069;49.306;8.636;2023-04-01T18:57:02;1.57;;;0.63;;
10059;SDS011;5069;49.306;8.636;2023-04-01T19:03:41;1.10;;;0.80;;
10059;SDS011;5069;49.306;8.636;2023-04-01T19:06:50;1.40;;;0.70;;
10059;SDS011;5069;49.306;8.636;2023-04-01T19:09:57;1.90;;;0.97;;
10059;SDS011;5069;49.306;8.636;2023-04-01T19:33:29;1.43;;;0.80;;
10059;SDS011;5069;49.306;8.636;2023-04-01T19:36:53;1.23;;;0.60;;
10059;SDS011;5069;49.306;8.636;2023-04-01T19:43:46;1.13;;;0.60;;
10059;SDS011;5069;49.306;8.636;2023-04-01T20:00:34;1.30;;;0.50;;
10059;SDS011;5069;49.306;8.636;2023-04-01T20:03:46;2.27;;;0.70;;
10059;SDS011;5069;49.306;8.636;2023-04-01T20:10:09;2.17;;;1.00;;
10059;SDS011;5069;49.306;8.636;2023-04-01T20:17:01;1.03;;;0.70;;
10059;SDS011;5069;49.306;8.636;2023-04-01T20:20:23;1.17;;;0.80;;
10059;SDS011;5069;49.306;8.636;2023-04-01T20:24:04;1.47;;;0.80;;
10059;SDS011;5069;49.306;8.636;2023-04-01T20:26:59;1.63;;;0.77;;
10059;SDS011;5069;49.306;8.636;2023-04-01T20:30:16;2.23;;;0.90;;
10059;SDS011;5069;49.306;8.636;2023-04-01T20:37:21;2.10;;;1.10;;
10059;SDS011;5069;49.306;8.636;2023-04-01T20:40:37;4.27;;;0.90;;
10059;SDS011;5069;49.306;8.636;2023-04-01T20:43:58;3.90;;;1.33;;
10059;SDS011;5069;49.306;8.636;2023-04-01T20:50:31;2.73;;;1.10;;
10059;SDS011;5069;49.306;8.636;2023-04-01T20:53:50;2.87;;;1.37;;
10059;SDS011;5069;49.306;8.636;2023-04-01T20:57:05;2.13;;;1.20;;
10059;SDS011;5069;49.306;8.636;2023-04-01T21:00:34;1.60;;;1.20;;
10059;SDS011;5069;49.306;8.636;2023-04-01T21:03:49;3.57;;;1.40;;
10059;SDS011;5069;49.306;8.636;2023-04-01T21:10:33;2.50;;;1.03;;
10059;SDS011;5069;49.306;8.636;2023-04-01T21:14:01;2.47;;;1.13;;
10059;SDS011;5069;49.306;8.636;2023-04-01T21:17:38;2.93;;;1.37;;
10059;SDS011;5069;49.306;8.636;2023-04-01T21:27:22;2.70;;;1.30;;
10059;SDS011;5069;49.306;8.636;2023-04-01T21:30:39;2.53;;;1.17;;
10059;SDS011;5069;49.306;8.636;2023-04-01T21:37:12;2.23;;;1.30;;
10059;SDS011;5069;49.306;8.636;2023-04-01T21:50:55;3.30;;;1.03;;
10059;SDS011;5069;49.306;8.636;2023-04-01T21:57:32;2.50;;;1.20;;
10059;SDS011;5069;49.306;8.636;2023-04-01T22:07:38;1.67;;;1.10;;
10059;SDS011;5069;49.306;8.636;2023-04-01T22:13:58;3.37;;;1.10;;
10059;SDS011;5069;49.306;8.636;2023-04-01T22:23:39;2.17;;;1.30;;
10059;SDS011;5069;49.306;8.636;2023-04-01T22:30:09;3.47;;;1.50;;
10059;SDS011;5069;49.306;8.636;2023-04-01T22:33:21;2.87;;;1.23;;
10059;SDS011;5069;49.306;8.636;2023-04-01T22:39:55;2.97;;;1.67;;
10059;SDS011;5069;49.306;8.636;2023-04-01T22:43:17;1.80;;;0.90;;
10059;SDS011;5069;49.306;8.636;2023-04-01T22:49:50;2.20;;;0.93;;
10059;SDS011;5069;49.306;8.636;2023-04-01T22:53:04;5.90;;;1.60;;
10059;SDS011;5069;49.306;8.636;2023-04-01T22:56:30;1.53;;;0.90;;
10059;SDS011;5069;49.306;8.636;2023-04-01T23:03:19;3.07;;;1.20;;
10059;SDS011;5069;49.306;8.636;2023-04-01T23:06:24;5.33;;;1.20;;
10059;SDS011;5069;49.306;8.636;2023-04-01T23:09:30;2.47;;;1.00;;
10059;SDS011;5069;49.306;8.636;2023-04-01T23:12:34;3.47;;;0.90;;
10059;SDS011;5069;49.306;8.636;2023-04-01T23:15:36;3.83;;;0.90;;
10059;SDS011;5069;49.306;8.636;2023-04-01T23:18:50;3.03;;;0.90;;
10059;SDS011;5069;49.306;8.636;2023-04-01T23:25:13;2.30;;;1.10;;
10059;SDS011;5069;49.306;8.636;2023-04-01T23:28:40;2.57;;;1.10;;
10059;SDS011;5069;49.306;8.636;2023-04-01T23:31:45;2.37;;;1.40;;
10059;SDS011;5069;49.306;8.636;2023-04-01T23:34:49;3.30;;;1.20;;
10059;SDS011;5069;49.306;8.636;2023-04-01T23:37:52;5.03;;;1.20;;
10059;SDS011;5069;49.306;8.636;2023-04-01T23:40:54;3.27;;;1.30;;
10059;SDS011;5069;49.306;8.636;2023-04-01T23:44:14;1.87;;;0.90;;
10059;SDS011;5069;49.306;8.636;2023-04-01T23:47:21;1.93;;;1.23;;
10059;SDS011;5069;49.306;8.636;2023-04-01T23:50:25;1.30;;;1.20;;
10059;SDS011;5069;49.306;8.636;2023-04-01T23:53:29;1.77;;;1.10;;
10059;SDS011;5069;49.306;8.636;2023-04-01T23:56:34;3.60;;;1.20;;
10059;SDS011;5069;49.306;8.636;2023-04-01T23:59:39;3.70;;;1.30;;
